Time;durP1;ratioP1;P1;durP2;ratioP2;P2;SDS_P1;SDS_P2;PMS_P1;PMS_P2;Temp;Humidity;BMP_temperature;BMP_pressure;BME280_temperature;BME280_humidity;BME280_pressure;Samples;Min_cycle;Max_cycle;Signal;HPM_P1;HPM_P2
2023/02/24 00:02:14;;;;;;;23.70;9.40;;;;;;;-7.35;100.00;101760.85;106061;1278;1003153;-69
2023/02/24 00:04:44;;;;;;;24.40;10.30;;;;;;;-7.37;100.00;101762.80;106113;1278;1003524;-70
2023/02/24 00:07:13;;;;;;;24.60;10.50;;;;;;;-7.39;100.00;101758.79;106856;1278;25488;-68
2023/02/24 00:09:43;;;;;;;22.90;10.20;;;;;;;-7.40;100.00;101754.95;106057;1278;1002825;-69
2023/02/24 00:12:13;;;;;;;25.30;11.20;;;;;;;-7.43;100.00;101757.42;106082;1278;1003472;-69
2023/02/24 00:14:46;;;;;;;27.50;10.50;;;;;;;-7.44;100.00;101752.70;106047;1278;1003009;-68
2023/02/24 00:17:14;;;;;;;22.20;9.50;;;;;;;-7.46;100.00;101756.05;106841;1278;25266;-67
2023/02/24 00:19:45;;;;;;;27.60;10.90;;;;;;;-7.47;100.00;101756.75;106073;1278;1005442;-68
2023/02/24 00:22:13;;;;;;;26.20;10.90;;;;;;;-7.50;100.00;101765.72;105984;1278;1015529;-68
2023/02/24 00:24:43;;;;;;;20.20;8.40;;;;;;;-7.54;100.00;101768.55;106829;1277;25522;-68
2023/02/24 00:27:12;;;;;;;23.80;8.30;;;;;;;-7.57;100.00;101767.89;106083;1278;1003585;-68
2023/02/24 00:29:44;;;;;;;23.30;9.20;;;;;;;-7.58;100.00;101772.46;106047;1278;1003080;-68
2023/02/24 00:32:13;;;;;;;21.50;8.00;;;;;;;-7.60;100.00;101761.61;106095;1278;1002858;-69
2023/02/24 00:34:43;;;;;;;25.90;8.90;;;;;;;-7.61;100.00;101760.74;106097;1278;1002985;-70
2023/02/24 00:37:14;;;;;;;25.20;8.70;;;;;;;-7.62;100.00;101754.27;106645;1278;204165;-68
2023/02/24 00:39:47;;;;;;;21.20;8.50;;;;;;;-7.62;100.00;101747.98;106804;1278;25494;-70
2023/02/24 00:42:18;;;;;;;19.70;7.50;;;;;;;-7.65;100.00;101746.77;106789;1278;23903;-70
2023/02/24 00:44:47;;;;;;;19.70;8.30;;;;;;;-7.65;100.00;101749.21;106079;1277;1003021;-70
2023/02/24 00:47:16;;;;;;;17.40;7.90;;;;;;;-7.65;100.00;101753.06;106084;1278;1003020;-67
2023/02/24 00:49:45;;;;;;;17.40;7.50;;;;;;;-7.61;100.00;101756.02;106111;1277;1003794;-68
2023/02/24 00:52:15;;;;;;;20.10;6.60;;;;;;;-7.57;100.00;101749.67;106757;1277;22525;-70
2023/02/24 00:54:46;;;;;;;15.50;7.10;;;;;;;-7.52;100.00;101743.15;106817;1278;22658;-68
2023/02/24 00:57:17;;;;;;;19.00;7.50;;;;;;;-7.48;100.00;101738.20;106065;1278;1003795;-69
2023/02/24 00:59:50;;;;;;;16.70;6.30;;;;;;;-7.43;100.00;101732.73;106020;1278;1002950;-68
2023/02/24 01:02:20;;;;;;;17.10;6.50;;;;;;;-7.40;100.00;101735.16;106059;1278;1003568;-67
2023/02/24 01:04:50;;;;;;;17.30;6.20;;;;;;;-7.39;100.00;101726.19;106862;1278;25307;-69
2023/02/24 01:07:19;;;;;;;17.40;6.60;;;;;;;-7.36;100.00;101731.95;106788;1278;25389;-66
2023/02/24 01:09:48;;;;;;;19.20;7.10;;;;;;;-7.34;100.00;101730.52;106839;1278;25363;-69
2023/02/24 01:12:48;;;;;;;18.50;6.90;;;;;;;-7.32;100.00;101729.45;106101;1278;1003015;-68
2023/02/24 01:15:18;;;;;;;18.70;6.90;;;;;;;-7.31;100.00;101729.60;106097;1278;1002987;-68
2023/02/24 01:17:48;;;;;;;21.10;7.30;;;;;;;-7.30;100.00;101729.25;106137;1278;1003154;-69
2023/02/24 01:20:17;;;;;;;15.90;6.60;;;;;;;-7.29;100.00;101730.30;106801;1278;26788;-68
2023/02/24 01:22:48;;;;;;;20.00;7.90;;;;;;;-7.29;100.00;101729.77;106840;1278;22528;-67
2023/02/24 01:25:19;;;;;;;20.80;8.10;;;;;;;-7.27;100.00;101725.38;106860;1278;24224;-69
2023/02/24 01:27:48;;;;;;;19.70;7.40;;;;;;;-7.24;100.00;101730.09;106016;1278;1003514;-70
2023/02/24 01:30:17;;;;;;;19.30;6.80;;;;;;;-7.25;100.00;101728.33;106081;1277;1003392;-71
2023/02/24 01:32:47;;;;;;;16.20;6.50;;;;;;;-7.24;100.00;101727.45;106816;1278;24444;-68
2023/02/24 01:35:22;;;;;;;18.40;7.30;;;;;;;-7.22;100.00;101731.45;106808;1278;25307;-70
2023/02/24 01:37:52;;;;;;;19.00;8.00;;;;;;;-7.24;100.00;101732.71;106064;1278;1003010;-70
2023/02/24 01:40:20;;;;;;;20.20;8.00;;;;;;;-7.24;100.00;101735.86;106111;1278;1002870;-68
2023/02/24 01:42:51;;;;;;;22.10;7.80;;;;;;;-7.23;100.00;101734.63;106798;1278;25310;-68
2023/02/24 01:45:23;;;;;;;16.50;7.30;;;;;;;-7.24;100.00;101734.11;106868;1278;25529;-67
2023/02/24 01:47:52;;;;;;;18.10;7.90;;;;;;;-7.24;100.00;101728.34;106031;1278;1003306;-68
2023/02/24 01:50:21;;;;;;;17.50;7.00;;;;;;;-7.26;100.00;101727.29;106817;1278;25473;-67
2023/02/24 01:52:57;;;;;;;19.20;8.00;;;;;;;-7.28;100.00;101728.71;106835;1278;25406;-68
2023/02/24 01:55:33;;;;;;;18.50;7.70;;;;;;;-7.30;100.00;101725.73;106805;1278;24285;-68
2023/02/24 01:58:10;;;;;;;16.20;7.00;;;;;;;-7.31;100.00;101715.42;106053;1278;1003232;-67
2023/02/24 02:00:43;;;;;;;20.50;7.50;;;;;;;-7.33;100.00;101708.80;106141;1278;1003328;-70
2023/02/24 02:03:17;;;;;;;21.30;8.40;;;;;;;-7.37;100.00;101702.17;106072;1278;1003556;-69
2023/02/24 02:05:47;;;;;;;21.30;7.50;;;;;;;-7.40;100.00;101707.10;106035;1278;1002902;-69
2023/02/24 02:08:18;;;;;;;20.10;7.70;;;;;;;-7.40;100.00;101703.09;106745;1278;25256;-68
2023/02/24 02:10:49;;;;;;;20.60;7.90;;;;;;;-7.40;100.00;101705.54;106794;1278;25458;-68
2023/02/24 02:13:22;;;;;;;18.70;7.10;;;;;;;-7.41;100.00;101701.70;106815;1278;25323;-69
2023/02/24 02:16:19;;;;;;;19.80;7.00;;;;;;;-7.41;100.00;101694.52;106715;1277;25394;-70
2023/02/24 02:18:57;;;;;;;19.60;7.90;;;;;;;-7.41;100.00;101687.67;106845;1278;22531;-69
2023/02/24 02:22:02;;;;;;;20.50;7.00;;;;;;;-7.43;100.00;101694.35;106081;1278;1003794;-67
2023/02/24 02:24:37;;;;;;;16.90;6.80;;;;;;;-7.44;100.00;101688.42;106025;1278;1002956;-70
2023/02/24 02:27:22;;;;;;;22.10;8.10;;;;;;;-7.45;100.00;101689.65;105992;1278;1015566;-67
2023/02/24 02:29:51;;;;;;;18.10;7.40;;;;;;;-7.47;100.00;101684.94;106061;1277;1002997;-68
2023/02/24 02:32:41;;;;;;;17.50;7.20;;;;;;;-7.48;100.00;101685.80;106086;1277;1003088;-69
2023/02/24 02:35:13;;;;;;;18.80;7.00;;;;;;;-7.49;100.00;101685.84;106775;1278;25321;-70
2023/02/24 02:37:55;;;;;;;17.50;6.80;;;;;;;-7.49;100.00;101693.36;106804;1278;22548;-69
2023/02/24 02:40:47;;;;;;;15.40;6.50;;;;;;;-7.50;100.00;101684.61;106862;1278;25383;-69
2023/02/24 02:43:40;;;;;;;13.20;6.40;;;;;;;-7.52;100.00;101684.46;106111;1278;1003510;-68
2023/02/24 02:46:16;;;;;;;13.00;6.10;;;;;;;-7.53;100.00;101681.50;106874;1278;26696;-69
2023/02/24 02:48:55;;;;;;;17.20;6.60;;;;;;;-7.56;100.00;101682.06;106102;1278;1003295;-68
2023/02/24 02:51:26;;;;;;;16.10;6.40;;;;;;;-7.59;100.00;101676.83;106828;1278;25473;-69
2023/02/24 02:54:09;;;;;;;14.30;5.40;;;;;;;-7.59;100.00;101671.94;106114;1278;1003035;-69
2023/02/24 02:56:56;;;;;;;13.60;6.50;;;;;;;-7.60;100.00;101664.75;106826;1278;22635;-69
2023/02/24 02:59:25;;;;;;;17.10;6.30;;;;;;;-7.59;100.00;101668.77;106819;1278;22579;-70
2023/02/24 03:01:59;;;;;;;16.40;6.50;;;;;;;-7.58;100.00;101670.52;106873;1277;22614;-71
2023/02/24 03:04:29;;;;;;;13.60;5.90;;;;;;;-7.57;100.00;101670.67;106851;1278;24351;-69
2023/02/24 03:06:59;;;;;;;12.90;5.20;;;;;;;-7.56;100.00;101671.36;106826;1278;25407;-68
2023/02/24 03:09:31;;;;;;;14.30;6.10;;;;;;;-7.56;100.00;101669.80;106033;1262;1003008;-67
2023/02/24 03:12:03;;;;;;;16.20;6.20;;;;;;;-7.57;100.00;101662.44;106764;1278;25515;-69
2023/02/24 03:14:33;;;;;;;13.40;5.50;;;;;;;-7.57;100.00;101667.34;106789;1278;22910;-68
2023/02/24 03:17:15;;;;;;;12.30;5.30;;;;;;;-7.55;100.00;101666.46;106556;1278;25506;-69
2023/02/24 03:19:52;;;;;;;10.90;5.30;;;;;;;-7.56;100.00;101662.95;106775;1278;25373;-68
2023/02/24 03:22:33;;;;;;;12.90;6.00;;;;;;;-7.56;100.00;101655.06;106844;1278;23128;-69
2023/02/24 03:25:04;;;;;;;17.20;7.00;;;;;;;-7.57;100.00;101652.63;106849;1278;24172;-68
2023/02/24 03:27:52;;;;;;;13.80;6.10;;;;;;;-7.57;100.00;101650.37;106097;1278;1003016;-68
2023/02/24 03:30:25;;;;;;;18.70;7.00;;;;;;;-7.58;100.00;101648.61;106047;1278;1002924;-69
2023/02/24 03:33:15;;;;;;;14.10;6.00;;;;;;;-7.58;100.00;101650.19;106852;1278;23857;-68
2023/02/24 03:35:44;;;;;;;20.40;7.10;;;;;;;-7.57;100.00;101639.14;106783;1278;24500;-68
2023/02/24 03:38:13;;;;;;;14.30;6.00;;;;;;;-7.58;100.00;101643.17;106820;1278;25592;-69
2023/02/24 03:40:42;;;;;;;19.20;6.70;;;;;;;-7.58;100.00;101640.55;106861;1276;25565;-69
2023/02/24 03:43:20;;;;;;;18.50;6.40;;;;;;;-7.58;100.00;101637.41;106141;1276;1003114;-68
2023/02/24 03:45:49;;;;;;;16.10;6.40;;;;;;;-7.59;100.00;101634.63;106091;1276;1002964;-69
2023/02/24 03:48:19;;;;;;;17.20;6.20;;;;;;;-7.58;100.00;101636.53;106889;1276;25511;-70
2023/02/24 03:50:48;;;;;;;20.40;6.90;;;;;;;-7.57;100.00;101635.13;106783;1276;22702;-69
2023/02/24 03:54:04;;;;;;;17.30;6.20;;;;;;;-7.58;100.00;101627.24;106834;1276;25438;-68
2023/02/24 03:56:39;;;;;;;13.30;6.00;;;;;;;-7.57;100.00;101623.92;106601;1276;22530;-69
2023/02/24 03:59:28;;;;;;;16.10;6.50;;;;;;;-7.57;100.00;101625.84;106068;1276;1002983;-69
2023/02/24 04:02:13;;;;;;;16.80;6.40;;;;;;;-7.55;100.00;101615.48;106842;1276;25607;-69
2023/02/24 04:05:04;;;;;;;14.40;6.00;;;;;;;-7.54;100.00;101613.55;106813;1276;25233;-70
2023/02/24 04:07:53;;;;;;;14.20;6.60;;;;;;;-7.51;100.00;101622.77;106848;1276;25581;-69
2023/02/24 04:10:31;;;;;;;9.90;5.10;;;;;;;-7.48;100.00;101623.45;106865;1276;24378;-71
2023/02/24 04:13:09;;;;;;;10.30;5.00;;;;;;;-7.47;100.00;101623.96;106858;1276;25389;-74
2023/02/24 04:15:42;;;;;;;17.80;6.20;;;;;;;-7.46;100.00;101626.40;106120;1276;1003119;-71
2023/02/24 04:18:22;;;;;;;13.60;5.30;;;;;;;-7.43;100.00;101633.73;106849;1276;26702;-72
2023/02/24 04:20:53;;;;;;;14.40;5.40;;;;;;;-7.41;100.00;101628.64;106813;1276;25290;-70
2023/02/24 04:23:28;;;;;;;15.00;5.60;;;;;;;-7.39;100.00;101638.42;105719;1276;1003493;-69
2023/02/24 04:25:58;;;;;;;14.60;5.50;;;;;;;-7.36;100.00;101635.59;106694;1276;25551;-70
2023/02/24 04:28:28;;;;;;;14.20;6.70;;;;;;;-7.33;100.00;101630.46;106571;1276;25256;-70
2023/02/24 04:31:04;;;;;;;19.20;8.90;;;;;;;-7.30;100.00;101624.64;106650;1276;22756;-71
2023/02/24 04:33:34;;;;;;;19.50;8.20;;;;;;;-7.28;100.00;101627.24;106516;1276;22533;-72
2023/02/24 04:36:04;;;;;;;13.70;6.30;;;;;;;-7.23;100.00;101631.05;105789;1276;1003126;-73
2023/02/24 04:38:36;;;;;;;13.80;5.70;;;;;;;-7.19;100.00;101625.56;106877;1276;26919;-72
2023/02/24 04:41:07;;;;;;;17.50;7.00;;;;;;;-7.17;100.00;101622.56;106100;1276;1003101;-69
2023/02/24 04:43:35;;;;;;;15.50;7.00;;;;;;;-7.17;100.00;101617.13;106862;1276;26597;-69
2023/02/24 04:46:06;;;;;;;16.00;6.90;;;;;;;-7.18;100.00;101624.33;106130;1276;1002941;-68
2023/02/24 04:48:35;;;;;;;20.20;7.80;;;;;;;-7.19;100.00;101629.77;106850;1276;22533;-69
2023/02/24 04:51:08;;;;;;;13.90;5.90;;;;;;;-7.20;100.00;101622.95;106031;1276;1003183;-70
2023/02/24 04:53:37;;;;;;;12.40;4.70;;;;;;;-7.19;100.00;101622.77;106910;1276;26751;-69
2023/02/24 04:56:10;;;;;;;14.90;5.60;;;;;;;-7.18;100.00;101618.20;106843;1276;25370;-70
2023/02/24 04:58:41;;;;;;;13.90;5.70;;;;;;;-7.16;100.00;101618.70;106911;1276;22537;-68
2023/02/24 05:01:10;;;;;;;15.80;6.50;;;;;;;-7.14;100.00;101627.25;106915;1276;25369;-69
2023/02/24 05:03:43;;;;;;;12.60;5.70;;;;;;;-7.12;100.00;101623.38;106048;1276;1003505;-68
2023/02/24 05:06:14;;;;;;;14.90;5.10;;;;;;;-7.11;100.00;101627.05;106799;1276;25360;-68
2023/02/24 05:08:44;;;;;;;15.90;5.90;;;;;;;-7.09;100.00;101632.44;106861;1276;22769;-68
2023/02/24 05:11:17;;;;;;;18.50;6.50;;;;;;;-7.07;100.00;101633.65;106888;1276;26842;-68
2023/02/24 05:13:46;;;;;;;15.90;5.70;;;;;;;-7.05;100.00;101636.42;106159;1276;1014563;-70
2023/02/24 05:16:16;;;;;;;13.00;6.00;;;;;;;-7.02;100.00;101635.16;106874;1276;26937;-70
2023/02/24 05:18:48;;;;;;;12.50;5.40;;;;;;;-6.99;100.00;101634.42;106903;1276;23771;-69
2023/02/24 05:21:36;;;;;;;14.20;5.90;;;;;;;-6.96;100.00;101639.46;106854;1276;25260;-70
2023/02/24 05:24:10;;;;;;;18.70;6.00;;;;;;;-6.94;100.00;101633.83;106834;1276;22608;-70
2023/02/24 05:26:43;;;;;;;14.40;5.80;;;;;;;-6.92;100.00;101638.19;106854;1276;25998;-68
2023/02/24 05:29:13;;;;;;;15.80;6.60;;;;;;;-6.90;100.00;101637.99;106830;1276;25232;-70
2023/02/24 05:31:43;;;;;;;15.30;6.30;;;;;;;-6.88;100.00;101640.41;106153;1276;1003600;-70
2023/02/24 05:34:16;;;;;;;14.50;6.00;;;;;;;-6.85;100.00;101641.43;106125;1276;1003826;-70
2023/02/24 05:36:45;;;;;;;21.70;7.50;;;;;;;-6.83;100.00;101644.71;106907;1276;22537;-71
2023/02/24 05:39:18;;;;;;;18.30;7.10;;;;;;;-6.80;100.00;101643.27;106906;1276;22534;-70
2023/02/24 05:41:48;;;;;;;21.50;8.20;;;;;;;-6.76;100.00;101640.05;105989;1276;1003151;-69
2023/02/24 05:44:22;;;;;;;22.70;7.50;;;;;;;-6.72;100.00;101640.54;106737;1278;22650;-68
2023/02/24 05:46:57;;;;;;;22.30;8.00;;;;;;;-6.69;100.00;101645.93;106001;1278;1003034;-71
2023/02/24 05:49:31;;;;;;;21.60;7.70;;;;;;;-6.63;100.00;101636.55;106718;1278;25732;-69
2023/02/24 05:52:06;;;;;;;19.50;7.20;;;;;;;-6.56;100.00;101636.97;106041;1278;1002915;-69
2023/02/24 05:54:42;;;;;;;22.90;8.10;;;;;;;-6.47;100.00;101632.64;106496;1278;25445;-70
2023/02/24 05:57:18;;;;;;;22.90;8.40;;;;;;;-6.42;100.00;101638.01;106753;1278;24307;-69
2023/02/24 05:59:48;;;;;;;21.50;8.30;;;;;;;-6.37;100.00;101635.64;106570;1278;22529;-69
2023/02/24 06:02:26;;;;;;;21.40;8.40;;;;;;;-6.31;100.00;101636.59;106723;1278;25471;-69
2023/02/24 06:04:57;;;;;;;18.70;6.50;;;;;;;-6.24;100.00;101634.91;106749;1278;25256;-70
2023/02/24 06:07:27;;;;;;;14.00;6.00;;;;;;;-6.20;100.00;101632.73;106673;1278;25536;-71
2023/02/24 06:09:57;;;;;;;17.50;7.30;;;;;;;-6.16;100.00;101631.08;105994;1278;1003555;-71
2023/02/24 06:12:33;;;;;;;14.50;6.30;;;;;;;-6.11;100.00;101623.45;106722;1278;25301;-69
2023/02/24 06:15:06;;;;;;;20.40;6.80;;;;;;;-6.06;100.00;101615.82;106763;1278;23628;-69
2023/02/24 06:17:38;;;;;;;16.90;6.60;;;;;;;-6.00;100.00;101610.98;106002;1278;1002829;-69
2023/02/24 06:20:14;;;;;;;16.70;7.00;;;;;;;-5.91;100.00;101615.00;106714;1278;25441;-69
2023/02/24 06:22:42;;;;;;;20.10;7.00;;;;;;;-5.80;100.00;101609.18;106754;1278;25430;-69
2023/02/24 06:25:17;;;;;;;20.80;6.50;;;;;;;-5.68;100.00;101604.73;106670;1278;26856;-68
2023/02/24 06:27:52;;;;;;;21.50;7.00;;;;;;;-5.53;100.00;101602.52;106737;1278;25256;-69
2023/02/24 06:30:21;;;;;;;;;;;;;;;-5.41;100.00;101611.05;106709;1278;26518;-68
2023/02/24 06:32:50;;;;;;;16.50;6.30;;;;;;;-5.29;100.00;101606.42;105941;1278;1003681;-70
2023/02/24 06:35:19;;;;;;;15.90;5.60;;;;;;;-5.21;100.00;101602.56;106636;1278;22575;-69
2023/02/24 06:37:49;;;;;;;18.50;6.60;;;;;;;-5.11;100.00;101593.92;105770;1278;1003645;-69
2023/02/24 06:40:18;;;;;;;15.90;6.30;;;;;;;-5.01;100.00;101578.23;106583;1272;25462;-69
2023/02/24 06:42:48;;;;;;;13.80;6.40;;;;;;;-4.92;100.00;101578.02;106199;1269;1003331;-68
2023/02/24 06:45:17;;;;;;;13.60;5.50;;;;;;;-4.89;100.00;101563.89;106862;1269;26882;-69
2023/02/24 06:47:49;;;;;;;13.60;5.90;;;;;;;-4.84;100.00;101541.60;106122;1270;1003504;-71
2023/02/24 06:50:19;;;;;;;18.70;6.80;;;;;;;-4.79;100.00;101528.82;106859;1273;26707;-71
2023/02/24 06:52:48;;;;;;;18.70;6.90;;;;;;;-4.71;100.00;101507.35;106914;1276;25481;-72
2023/02/24 06:55:26;;;;;;;16.70;6.60;;;;;;;-4.63;100.00;101481.61;106892;1269;25430;-72
2023/02/24 06:57:57;;;;;;;15.70;6.00;;;;;;;-4.49;100.00;101468.94;106888;1269;25446;-70
2023/02/24 07:00:35;;;;;;;15.00;6.00;;;;;;;-4.38;100.00;101456.33;106958;1276;22526;-69
2023/02/24 07:03:15;;;;;;;13.40;6.20;;;;;;;-4.32;100.00;101434.16;106939;1269;23990;-71
2023/02/24 07:05:52;;;;;;;16.40;6.90;;;;;;;-4.14;100.00;101422.21;106844;1272;24218;-71
2023/02/24 07:08:23;;;;;;;14.80;5.40;;;;;;;-3.96;100.00;101406.92;107166;1273;25482;-72
2023/02/24 07:10:56;;;;;;;15.80;6.00;;;;;;;-3.86;100.00;101388.98;107057;1273;24211;-69
2023/02/24 07:13:28;;;;;;;12.50;5.70;;;;;;;-3.79;100.00;101362.90;107139;1272;26742;-68
2023/02/24 07:16:06;;;;;;;14.90;6.30;;;;;;;-3.78;100.00;101347.37;106971;1273;25169;-69
2023/02/24 07:18:35;;;;;;;15.70;6.90;;;;;;;-3.78;100.00;101318.83;107076;1270;22755;-69
2023/02/24 07:21:05;;;;;;;17.50;7.00;;;;;;;-3.69;100.00;101301.42;107361;1274;25377;-69
2023/02/24 07:23:33;;;;;;;23.40;7.00;;;;;;;-3.55;100.00;101290.77;106610;1275;1002835;-69
2023/02/24 07:26:12;;;;;;;29.00;7.50;;;;;;;-3.46;100.00;101268.59;107309;1276;26590;-68
2023/02/24 07:28:42;;;;;;;14.90;6.30;;;;;;;-3.44;100.00;101246.30;107572;1273;22665;-72
2023/02/24 07:31:12;;;;;;;18.20;6.60;;;;;;;-3.47;100.00;101230.73;107757;1270;24193;-70
2023/02/24 07:33:44;;;;;;;19.00;7.00;;;;;;;-3.44;100.00;101204.52;107003;1270;1002990;-72
2023/02/24 07:36:21;;;;;;;15.60;6.10;;;;;;;-3.39;100.00;101186.20;107031;1275;1003727;-71
2023/02/24 07:38:52;;;;;;;14.00;5.60;;;;;;;-3.35;100.00;101164.73;106933;1276;1003639;-74
2023/02/24 07:41:21;;;;;;;13.10;5.80;;;;;;;-3.31;100.00;101149.58;107066;1270;1003820;-74
2023/02/24 07:43:53;;;;;;;16.20;6.70;;;;;;;-3.20;100.00;101135.61;106863;1277;1003506;-74
2023/02/24 07:46:26;;;;;;;16.20;6.90;;;;;;;-3.18;100.00;101121.79;106820;1276;1002647;-70
2023/02/24 07:48:58;;;;;;;13.60;5.80;;;;;;;-3.10;100.00;101100.86;106641;1270;1003732;-70
2023/02/24 07:51:28;;;;;;;13.70;6.00;;;;;;;-2.97;100.00;101092.95;106735;1276;1003647;-70
2023/02/24 07:53:58;;;;;;;16.60;6.20;;;;;;;-2.90;100.00;101071.51;107670;1270;22483;-72
2023/02/24 07:56:27;;;;;;;12.10;5.50;;;;;;;-2.92;100.00;101048.14;106861;1276;1002596;-73
2023/02/24 07:58:58;;;;;;;12.10;5.30;;;;;;;-2.80;100.00;101037.06;107099;1276;1003360;-73
2023/02/24 08:01:28;;;;;;;14.80;6.30;;;;;;;-2.68;100.00;101026.86;107765;1276;26606;-71
2023/02/24 08:04:00;;;;;;;18.60;7.10;;;;;;;-2.49;100.00;101028.37;107828;1275;23368;-73
2023/02/24 08:06:42;;;;;;;14.90;6.90;;;;;;;-2.33;100.00;101018.91;107089;1278;1003161;-74
2023/02/24 08:09:17;;;;;;;19.50;6.70;;;;;;;-2.33;100.00;100989.57;106915;1278;1003366;-73
2023/02/24 08:11:51;;;;;;;12.40;5.40;;;;;;;-2.26;100.00;100981.33;107990;1272;25307;-73
2023/02/24 08:14:25;;;;;;;14.00;6.00;;;;;;;-2.24;100.00;100966.60;107044;1276;1003291;-73
2023/02/24 08:16:58;;;;;;;19.00;7.00;;;;;;;-2.26;100.00;100954.66;107067;1269;1002931;-74
2023/02/24 08:19:32;;;;;;;19.80;7.10;;;;;;;-2.21;100.00;100945.62;107053;1269;1003658;-70
2023/02/24 08:22:36;;;;;;;15.40;6.80;;;;;;;-2.27;100.00;100926.64;107169;1276;1003022;-73
2023/02/24 08:25:05;;;;;;;17.20;6.20;;;;;;;-2.20;100.00;100903.87;107683;1276;25437;-70
2023/02/24 08:27:37;;;;;;;14.60;6.40;;;;;;;-2.04;100.00;100893.44;107569;1276;25425;-70
2023/02/24 08:30:07;;;;;;;16.60;6.00;;;;;;;-1.90;100.00;100883.98;107551;1277;22524;-71
2023/02/24 08:32:43;;;;;;;17.30;7.10;;;;;;;-1.86;100.00;100852.33;107485;1272;26595;-73
2023/02/24 08:35:16;;;;;;;15.60;6.80;;;;;;;-1.84;100.00;100813.36;107797;1269;25487;-74
2023/02/24 08:37:47;;;;;;;13.30;5.40;;;;;;;-1.81;100.00;100772.59;107838;1273;22808;-73
2023/02/24 08:43:29;;;;;;;13.00;5.30;;;;;;;-1.74;100.00;100689.30;106802;1269;1002521;-68
2023/02/24 08:46:00;;;;;;;15.90;5.70;;;;;;;-1.51;100.00;100641.82;106755;1254;1003516;-72
2023/02/24 08:48:35;;;;;;;12.80;5.10;;;;;;;-1.37;100.00;100562.05;107643;1269;23753;-70
2023/02/24 08:51:33;;;;;;;16.20;6.10;;;;;;;-1.27;100.00;100498.74;107605;1270;25450;-70
2023/02/24 08:54:14;;;;;;;16.50;6.10;;;;;;;-1.12;100.00;100463.43;106611;1270;1003047;-70
2023/02/24 08:56:54;;;;;;;14.80;5.90;;;;;;;-1.01;100.00;100419.80;107289;1256;22521;-71
2023/02/24 08:59:36;;;;;;;13.50;5.40;;;;;;;-0.87;100.00;100389.58;106544;1270;1002662;-71
2023/02/24 09:04:59;;;;;;;16.60;6.40;;;;;;;-0.82;100.00;100280.79;106921;1276;1002718;-75
2023/02/24 09:07:36;;;;;;;18.20;7.00;;;;;;;-0.90;100.00;100238.80;107595;1256;22546;-71
2023/02/24 09:10:16;;;;;;;16.70;6.80;;;;;;;-0.99;100.00;100210.83;106815;1278;1003783;-72
2023/02/24 09:12:48;;;;;;;14.20;6.10;;;;;;;-0.96;100.00;100201.28;107576;1278;24967;-72
2023/02/24 09:15:19;;;;;;;13.90;5.30;;;;;;;-0.83;100.00;100199.91;106850;1269;1003181;-69
2023/02/24 09:18:06;;;;;;;8.00;4.60;;;;;;;-0.74;100.00;100163.11;106875;1273;26611;-72
2023/02/24 09:20:55;;;;;;;8.90;4.40;;;;;;;-0.60;100.00;100123.46;107393;1275;25645;-71
2023/02/24 09:23:29;;;;;;;9.80;4.50;;;;;;;-0.61;100.00;100084.21;107207;1278;25303;-69
2023/02/24 09:26:09;;;;;;;12.30;4.60;;;;;;;-0.50;100.00;100065.12;106475;1277;1015307;-71
2023/02/24 09:28:53;;;;;;;9.00;4.20;;;;;;;-0.44;100.00;100048.40;106508;1269;1003131;-68
2023/02/24 09:31:23;;;;;;;12.50;5.00;;;;;;;-0.39;100.00;100038.52;106484;1274;1003046;-74
2023/02/24 09:34:03;;;;;;;16.90;4.80;;;;;;;-0.41;100.00;100042.35;107100;1276;1002431;-69
2023/02/24 09:37:00;;;;;;;12.50;5.10;;;;;;;-0.36;100.00;100031.07;107665;1269;22604;-71
2023/02/24 09:42:27;;;;;;;18.20;5.20;;;;;;;-0.16;100.00;100009.05;107561;1275;22542;-73
2023/02/24 09:45:00;;;;;;;10.10;4.50;;;;;;;-0.13;100.00;100000.45;106927;1276;1002982;-71
2023/02/24 09:47:55;;;;;;;11.00;4.70;;;;;;;-0.07;100.00;99987.12;106830;1275;1003307;-72
2023/02/24 09:50:36;;;;;;;11.20;4.70;;;;;;;0.08;100.00;99974.96;106393;1269;1015191;-70
2023/02/24 09:53:28;;;;;;;15.50;5.30;;;;;;;0.27;100.00;99960.71;106442;1269;1003276;-70
2023/02/24 09:56:03;;;;;;;15.70;6.00;;;;;;;0.31;100.00;99955.09;107011;1270;25440;-68
2023/02/24 09:59:24;;;;;;;14.70;5.40;;;;;;;0.21;100.00;99941.62;107104;1276;22533;-70
2023/02/24 10:02:26;;;;;;;12.70;5.60;;;;;;;0.00;100.00;99925.70;106724;1278;25431;-67
2023/02/24 10:05:05;;;;;;;11.30;5.00;;;;;;;-0.19;100.00;99919.73;106425;1269;1002523;-68
2023/02/24 10:07:41;;;;;;;10.70;4.90;;;;;;;-0.26;100.00;99913.85;106843;1275;23830;-70
2023/02/24 10:10:26;;;;;;;;;;;;;;;-0.34;100.00;99910.48;106998;1272;22501;-71
2023/02/24 10:13:13;;;;;;;11.20;4.80;;;;;;;-0.41;100.00;99900.70;106540;1276;1003048;-69
2023/02/24 10:15:57;;;;;;;11.10;4.90;;;;;;;-0.35;100.00;99903.32;106503;1276;1003262;-68
2023/02/24 10:18:28;;;;;;;16.70;5.20;;;;;;;-0.32;100.00;99901.29;107333;1274;25461;-70
2023/02/24 10:21:02;;;;;;;9.40;4.30;;;;;;;-0.29;100.00;99901.66;106591;1272;1003612;-69
2023/02/24 10:23:55;;;;;;;9.00;4.70;;;;;;;-0.27;100.00;99897.77;106530;1270;1003322;-69
2023/02/24 10:26:30;;;;;;;9.10;4.30;;;;;;;-0.37;100.00;99877.40;106422;1269;1002978;-68
2023/02/24 10:29:17;;;;;;;13.80;4.90;;;;;;;-0.44;100.00;99872.40;107039;1276;22536;-68
2023/02/24 10:31:56;;;;;;;12.90;4.80;;;;;;;-0.34;100.00;99874.17;106449;1270;1003527;-70
2023/02/24 10:34:32;;;;;;;13.20;5.50;;;;;;;-0.22;100.00;99866.59;107358;1276;25413;-69
2023/02/24 10:37:22;;;;;;;9.50;4.40;;;;;;;-0.11;100.00;99866.38;107456;1275;24175;-70
2023/02/24 10:39:58;;;;;;;11.00;5.00;;;;;;;-0.14;100.00;99846.60;107411;1271;23940;-71
2023/02/24 10:42:30;;;;;;;8.70;4.30;;;;;;;-0.16;100.00;99836.10;106444;1276;1002768;-68
2023/02/24 10:45:24;;;;;;;13.20;4.80;;;;;;;-0.09;100.00;99831.69;107168;1269;24226;-69
2023/02/24 10:47:55;;;;;;;11.70;5.00;;;;;;;-0.05;100.00;99816.70;106989;1270;26525;-70
2023/02/24 10:50:27;;;;;;;11.30;4.90;;;;;;;-0.07;100.00;99809.75;106394;1269;1016537;-72
2023/02/24 10:58:55;;;;;;;7.50;4.20;;;;;;;-0.07;100.00;99780.16;107227;1270;26558;-71
2023/02/24 11:04:31;;;;;;;11.30;4.20;;;;;;;0.18;100.00;99765.80;106511;1273;1003066;-73
2023/02/24 11:07:42;;;;;;;10.40;4.60;;;;;;;0.26;100.00;99756.33;106610;1270;1003072;-72
2023/02/24 11:10:41;;;;;;;10.10;4.10;;;;;;;0.35;100.00;99743.11;107456;1276;23820;-73
2023/02/24 11:18:54;;;;;;;11.80;4.90;;;;;;;0.59;100.00;99721.83;107602;1270;23056;-72
2023/02/24 11:21:25;;;;;;;9.00;5.00;;;;;;;0.79;100.00;99725.13;107176;1276;26594;-72
2023/02/24 11:23:58;;;;;;;13.60;5.60;;;;;;;0.99;100.00;99720.92;107211;1257;25490;-73
2023/02/24 11:26:37;;;;;;;;;;;;;;;1.09;100.00;99704.33;107172;1270;22530;-72
2023/02/24 11:29:31;;;;;;;10.80;4.60;;;;;;;1.10;100.00;99701.94;106876;1269;1003283;-70
2023/02/24 11:32:25;;;;;;;11.20;4.70;;;;;;;1.12;100.00;99686.52;106588;1276;1002972;-69
2023/02/24 11:35:32;;;;;;;11.90;5.40;;;;;;;1.20;100.00;99684.34;106902;1278;25448;-68
2023/02/24 11:38:26;;;;;;;12.00;4.70;;;;;;;1.31;100.00;99677.98;106740;1273;25304;-69
2023/02/24 11:41:04;;;;;;;10.50;5.00;;;;;;;1.48;100.00;99672.39;106877;1269;25374;-71
2023/02/24 11:43:34;;;;;;;12.80;6.50;;;;;;;1.58;100.00;99658.09;106904;1276;25326;-71
2023/02/24 11:46:21;;;;;;;12.90;5.10;;;;;;;1.57;100.00;99660.64;106167;1276;1002595;-70
2023/02/24 11:48:55;;;;;;;10.40;5.30;;;;;;;1.58;100.00;99647.27;106845;1276;24864;-72
2023/02/24 11:51:30;;;;;;;10.20;4.60;;;;;;;1.59;100.00;99639.30;106769;1276;22537;-70
2023/02/24 11:54:04;;;;;;;11.30;5.20;;;;;;;1.56;100.00;99631.98;106961;1276;25882;-68
2023/02/24 11:56:37;;;;;;;7.70;4.60;;;;;;;1.57;100.00;99625.46;106171;1276;1003939;-69
2023/02/24 11:59:37;;;;;;;7.90;4.30;;;;;;;1.51;100.00;99624.35;106785;1276;26507;-69
2023/02/24 12:02:16;;;;;;;10.10;4.70;;;;;;;1.39;100.00;99607.86;106989;1276;25255;-69